createdAt,value
2019-03-22T00:03:53.734Z,4.73
2019-03-22T00:24:03.209Z,4.53
2019-03-22T00:44:12.629Z,3.33
2019-03-22T01:04:22.061Z,3.14
2019-03-22T01:24:31.529Z,2.72
2019-03-22T01:44:43.132Z,1.95
2019-03-22T02:04:42.495Z,2.06
2019-03-22T02:24:51.994Z,1.71
2019-03-22T02:45:01.360Z,1.78
2019-03-22T03:05:13.026Z,2.32
2019-03-22T03:25:14.773Z,2.52
2019-03-22T03:45:14.174Z,3.02
2019-03-22T04:05:23.568Z,4.37
2019-03-22T04:25:33.044Z,4.41
2019-03-22T04:45:42.459Z,4.78
2019-03-22T05:05:51.824Z,5.34
2019-03-22T05:26:01.322Z,5.80
2019-03-22T05:46:12.994Z,4.71
2019-03-22T06:06:12.431Z,4.94
2019-03-22T06:26:24.106Z,5.30
2019-03-22T06:46:26.587Z,4.49
2019-03-22T07:06:28.245Z,3.56
2019-03-22T07:26:30.033Z,2.35
2019-03-22T07:46:36.882Z,1.68
2019-03-22T08:06:46.300Z,1.04
2019-03-22T08:26:55.718Z,1.14
2019-03-22T08:47:08.018Z,1.35
2019-03-22T09:07:07.375Z,1.13
2019-03-22T09:27:16.928Z,1.31
2019-03-22T09:47:26.412Z,1.05
2019-03-22T10:07:34.536Z,1.21
2019-03-22T10:27:46.235Z,1.08
2019-03-22T10:47:45.613Z,1.34
2019-03-22T11:07:54.973Z,1.46
2019-03-22T11:28:04.374Z,1.32
2019-03-22T11:48:16.063Z,1.02
2019-03-22T12:08:15.547Z,1.13
2019-03-22T12:28:25.003Z,1.05
2019-03-22T12:48:37.580Z,1.21
2019-03-22T13:08:37.038Z,1.67
2019-03-22T13:28:46.390Z,1.19
2019-03-22T13:48:55.737Z,1.23
2019-03-22T14:09:05.139Z,1.14
2019-03-22T14:29:16.786Z,1.69
2019-03-22T14:49:16.176Z,1.65
2019-03-22T15:09:25.665Z,1.26
2019-03-22T15:29:35.118Z,1.06
2019-03-22T15:49:44.584Z,1.22
2019-03-22T16:09:54.159Z,0.95
2019-03-22T16:29:54.237Z,1.10
2019-03-22T16:50:03.700Z,1.24
2019-03-22T17:10:23.561Z,1.11
2019-03-22T17:30:23.345Z,1.08
2019-03-22T17:50:30.995Z,1.04
2019-03-22T18:10:40.571Z,1.16
2019-03-22T18:30:52.419Z,1.13
2019-03-22T18:50:56.927Z,1.15
2019-03-22T19:10:54.545Z,1.13
2019-03-22T19:30:54.101Z,1.27
2019-03-22T19:51:08.143Z,1.59
2019-03-22T20:11:06.150Z,1.52
2019-03-22T20:31:15.665Z,1.28
2019-03-22T20:51:25.064Z,1.36
2019-03-22T21:11:40.426Z,1.42
2019-03-22T21:31:38.292Z,1.34
2019-03-22T21:51:47.623Z,1.33
2019-03-22T22:11:57.005Z,1.33
2019-03-22T22:32:06.331Z,1.31
2019-03-22T22:52:15.732Z,1.22
2019-03-22T23:12:31.995Z,1.50
2019-03-22T23:32:31.611Z,1.40
2019-03-22T23:52:40.980Z,1.32
